createdAt,value
2018-01-07T00:00:45.611Z,1011.28
2018-01-07T00:01:45.589Z,1011.25
2018-01-07T00:02:45.571Z,1011.31
2018-01-07T00:03:45.563Z,1011.28
2018-01-07T00:04:45.608Z,1011.30
2018-01-07T00:05:45.539Z,1011.32
2018-01-07T00:06:45.484Z,1011.28
2018-01-07T00:07:45.465Z,1011.30
2018-01-07T00:08:45.449Z,1011.23
2018-01-07T00:09:45.514Z,1011.29
2018-01-07T00:10:45.427Z,1011.30
2018-01-07T00:11:45.393Z,1011.30
2018-01-07T00:12:45.357Z,1011.31
2018-01-07T00:13:45.339Z,1011.32
2018-01-07T00:14:45.314Z,1011.34
2018-01-07T00:15:45.292Z,1011.36
2018-01-07T00:16:45.326Z,1011.33
2018-01-07T00:17:45.261Z,1011.34
2018-01-07T00:18:45.242Z,1011.41
2018-01-07T00:19:45.221Z,1011.37
2018-01-07T00:20:45.192Z,1011.38
2018-01-07T00:21:45.179Z,1011.42
2018-01-07T00:22:45.149Z,1011.40
2018-01-07T00:23:45.124Z,1011.42
2018-01-07T00:24:45.104Z,1011.39
2018-01-07T00:25:45.082Z,1011.44
2018-01-07T00:26:45.064Z,1011.42
2018-01-07T00:27:45.042Z,1011.50
2018-01-07T00:28:45.033Z,1011.48
2018-01-07T00:29:45.037Z,1011.49
2018-01-07T00:30:44.984Z,1011.49
2018-01-07T00:31:44.965Z,1011.47
2018-01-07T00:32:44.948Z,1011.45
2018-01-07T00:33:44.920Z,1011.49
2018-01-07T00:34:44.903Z,1011.45
2018-01-07T00:35:44.884Z,1011.46
2018-01-07T00:36:44.858Z,1011.49
2018-01-07T00:37:44.833Z,1011.47
2018-01-07T00:38:44.808Z,1011.50
2018-01-07T00:39:44.799Z,1011.55
2018-01-07T00:40:44.777Z,1011.56
2018-01-07T00:41:44.756Z,1011.56
2018-01-07T00:42:44.730Z,1011.54
2018-01-07T00:43:44.744Z,1011.57
2018-01-07T00:44:44.691Z,1011.58
2018-01-07T00:45:44.674Z,1011.59
2018-01-07T00:46:44.654Z,1011.63
2018-01-07T00:47:44.665Z,1011.58
2018-01-07T00:48:44.612Z,1011.68
2018-01-07T00:49:44.706Z,1011.68
2018-01-07T00:50:44.569Z,1011.68
2018-01-07T00:51:44.556Z,1011.70
2018-01-07T00:52:44.529Z,1011.70
2018-01-07T00:53:44.511Z,1011.71
2018-01-07T00:54:44.479Z,1011.76
2018-01-07T00:55:44.461Z,1011.78
2018-01-07T00:56:44.444Z,1011.75
2018-01-07T00:57:44.421Z,1011.81
2018-01-07T00:58:44.401Z,1011.83
2018-01-07T00:59:44.387Z,1011.80
2018-01-07T01:00:44.361Z,1011.90
2018-01-07T01:01:44.389Z,1011.90
2018-01-07T01:02:44.328Z,1011.89
2018-01-07T01:03:44.302Z,1011.94
2018-01-07T01:04:44.276Z,1011.97
2018-01-07T01:05:44.255Z,1011.97
2018-01-07T01:06:44.257Z,1011.99
2018-01-07T01:07:44.225Z,1012.03
2018-01-07T01:08:44.195Z,1012.04
2018-01-07T01:09:44.180Z,1012.14
2018-01-07T01:10:44.157Z,1012.06
2018-01-07T01:11:44.137Z,1012.12
2018-01-07T01:12:44.112Z,1012.12
2018-01-07T01:13:44.099Z,1012.13
2018-01-07T01:14:44.077Z,1012.08
2018-01-07T01:15:44.052Z,1012.14
2018-01-07T01:16:44.032Z,1012.17
2018-01-07T01:17:44.009Z,1012.21
2018-01-07T01:18:44.001Z,1012.20
2018-01-07T01:19:43.982Z,1012.21
2018-01-07T01:20:43.949Z,1012.20
2018-01-07T01:21:43.930Z,1012.26
2018-01-07T01:22:43.907Z,1012.26
2018-01-07T01:23:43.938Z,1012.29
2018-01-07T01:24:43.859Z,1012.31
2018-01-07T01:25:43.847Z,1012.34
2018-01-07T01:27:43.806Z,1012.39
2018-01-07T01:28:43.804Z,1012.42
2018-01-07T01:29:43.816Z,1012.39
2018-01-07T01:30:43.745Z,1012.39
2018-01-07T01:31:43.716Z,1012.44
2018-01-07T01:32:43.697Z,1012.45
2018-01-07T01:33:43.678Z,1012.53
2018-01-07T01:34:43.658Z,1012.52
2018-01-07T01:35:43.636Z,1012.51
2018-01-07T01:36:43.625Z,1012.57
2018-01-07T01:37:43.600Z,1012.57
2018-01-07T01:38:43.581Z,1012.62
2018-01-07T01:39:43.560Z,1012.61
2018-01-07T01:40:43.540Z,1012.61
2018-01-07T01:41:43.513Z,1012.69
2018-01-07T01:42:43.491Z,1012.70
2018-01-07T01:43:43.478Z,1012.73
2018-01-07T01:44:43.477Z,1012.74
2018-01-07T01:45:43.431Z,1012.73
2018-01-07T01:46:43.410Z,1012.77
2018-01-07T01:47:43.386Z,1012.76
2018-01-07T01:48:43.393Z,1012.80
2018-01-07T01:49:43.351Z,1012.80
2018-01-07T01:50:43.368Z,1012.79
2018-01-07T01:51:43.306Z,1012.83
2018-01-07T01:52:43.284Z,1012.88
2018-01-07T01:53:43.263Z,1012.89
2018-01-07T01:54:43.247Z,1012.90
2018-01-07T01:55:43.232Z,1012.94
2018-01-07T01:56:43.203Z,1012.95
2018-01-07T01:57:43.181Z,1012.94
2018-01-07T01:58:43.161Z,1012.97
2018-01-07T01:59:43.138Z,1012.93
2018-01-07T02:00:43.120Z,1012.94
2018-01-07T02:01:43.100Z,1013.02
2018-01-07T02:02:43.075Z,1013.00
2018-01-07T02:03:43.060Z,1012.94
2018-01-07T02:04:43.037Z,1012.98
2018-01-07T02:05:43.016Z,1013.01
2018-01-07T02:06:42.992Z,1013.03
2018-01-07T02:07:42.969Z,1013.01
2018-01-07T02:08:42.953Z,1013.09
2018-01-07T02:09:42.951Z,1013.03
2018-01-07T02:10:42.912Z,1013.11
2018-01-07T02:11:42.896Z,1013.08
2018-01-07T02:12:42.871Z,1013.11
2018-01-07T02:13:42.847Z,1013.11
2018-01-07T02:14:42.841Z,1013.12
2018-01-07T02:15:42.821Z,1013.14
2018-01-07T02:16:42.796Z,1013.15
2018-01-07T02:17:42.763Z,1013.16
2018-01-07T02:18:42.746Z,1013.18
2018-01-07T02:19:42.726Z,1013.24
2018-01-07T02:20:42.703Z,1013.21
2018-01-07T02:21:42.681Z,1013.25
2018-01-07T02:22:42.664Z,1013.31
2018-01-07T02:23:42.695Z,1013.31
2018-01-07T02:24:42.617Z,1013.31
2018-01-07T02:25:42.601Z,1013.35
2018-01-07T02:26:42.580Z,1013.35
2018-01-07T02:27:42.567Z,1013.34
2018-01-07T02:28:42.538Z,1013.33
2018-01-07T02:29:42.526Z,1013.44
2018-01-07T02:30:42.513Z,1013.48
2018-01-07T02:31:42.478Z,1013.48
2018-01-07T02:32:42.456Z,1013.43
2018-01-07T02:33:42.435Z,1013.53
2018-01-07T02:34:42.415Z,1013.53
2018-01-07T02:35:42.436Z,1013.51
2018-01-07T02:36:42.372Z,1013.55
2018-01-07T02:37:42.349Z,1013.54
2018-01-07T02:38:42.336Z,1013.60
2018-01-07T02:39:42.309Z,1013.61
2018-01-07T02:40:42.291Z,1013.65
2018-01-07T02:41:42.329Z,1013.63
2018-01-07T02:42:42.255Z,1013.71
2018-01-07T02:43:42.226Z,1013.68
2018-01-07T02:44:42.215Z,1013.69
2018-01-07T02:45:42.197Z,1013.64
2018-01-07T02:46:42.167Z,1013.65
2018-01-07T02:47:42.148Z,1013.67
2018-01-07T02:48:42.125Z,1013.70
2018-01-07T02:49:42.104Z,1013.65
2018-01-07T02:50:42.077Z,1013.72
2018-01-07T02:51:42.061Z,1013.70
2018-01-07T02:52:42.047Z,1013.71
2018-01-07T02:53:42.030Z,1013.75
2018-01-07T02:54:41.999Z,1013.74
2018-01-07T02:55:41.976Z,1013.74
2018-01-07T02:56:41.965Z,1013.80
2018-01-07T02:57:41.939Z,1013.83
2018-01-07T02:58:41.916Z,1013.80
2018-01-07T02:59:41.912Z,1013.83
2018-01-07T03:00:41.879Z,1013.79
2018-01-07T03:01:41.856Z,1013.83
2018-01-07T03:02:41.835Z,1013.83
2018-01-07T03:03:41.814Z,1013.83
2018-01-07T03:04:41.793Z,1013.81
2018-01-07T03:05:41.769Z,1013.77
2018-01-07T03:06:41.754Z,1013.83
2018-01-07T03:07:41.732Z,1013.78
2018-01-07T03:08:41.716Z,1013.78
2018-01-07T03:09:41.693Z,1013.85
2018-01-07T03:10:41.668Z,1013.86
2018-01-07T03:11:41.647Z,1013.80
2018-01-07T03:12:41.630Z,1013.88
2018-01-07T03:13:41.602Z,1013.85
2018-01-07T03:14:41.597Z,1013.79
2018-01-07T03:15:41.579Z,1013.84
2018-01-07T03:16:41.548Z,1013.84
2018-01-07T03:17:41.522Z,1013.88
2018-01-07T03:18:41.505Z,1013.85
2018-01-07T03:19:41.487Z,1013.94
2018-01-07T03:20:41.458Z,1013.88
2018-01-07T03:21:41.444Z,1013.94
2018-01-07T03:22:41.417Z,1013.94
2018-01-07T03:23:41.398Z,1013.96
2018-01-07T03:24:41.376Z,1013.99
2018-01-07T03:25:41.357Z,1014.01
2018-01-07T03:26:41.377Z,1013.98
2018-01-07T03:27:41.313Z,1014.02
2018-01-07T03:28:41.291Z,1014.04
2018-01-07T03:29:41.276Z,1014.01
2018-01-07T03:30:41.255Z,1014.04
2018-01-07T03:31:41.262Z,1014.04
2018-01-07T03:32:41.222Z,1014.07
2018-01-07T03:33:41.190Z,1014.11
2018-01-07T03:34:41.170Z,1014.13
2018-01-07T03:35:41.181Z,1014.09
2018-01-07T03:36:41.127Z,1014.07
2018-01-07T03:37:41.107Z,1014.09
2018-01-07T03:38:41.098Z,1014.17
2018-01-07T03:39:41.063Z,1014.15
2018-01-07T03:40:41.048Z,1014.17
2018-01-07T03:41:41.022Z,1014.17
2018-01-07T03:42:41.003Z,1014.23
2018-01-07T03:43:40.984Z,1014.25
2018-01-07T03:44:40.959Z,1014.21
2018-01-07T03:45:40.942Z,1014.25
2018-01-07T03:46:40.940Z,1014.25
2018-01-07T03:47:40.915Z,1014.28
2018-01-07T03:48:40.880Z,1014.29
2018-01-07T03:49:40.858Z,1014.27
2018-01-07T03:50:40.845Z,1014.29
2018-01-07T03:51:40.816Z,1014.30
2018-01-07T03:52:40.809Z,1014.37
2018-01-07T03:53:40.774Z,1014.36
2018-01-07T03:54:40.773Z,1014.37
2018-01-07T03:55:40.732Z,1014.43
2018-01-07T03:56:40.715Z,1014.44
2018-01-07T03:57:40.690Z,1014.40
2018-01-07T03:58:40.678Z,1014.43
2018-01-07T03:59:40.658Z,1014.39
2018-01-07T04:00:40.629Z,1014.41
2018-01-07T04:01:40.610Z,1014.46
2018-01-07T04:02:40.589Z,1014.38
2018-01-07T04:03:40.572Z,1014.40
2018-01-07T04:04:40.556Z,1014.38
2018-01-07T04:05:40.526Z,1014.44
2018-01-07T04:06:40.504Z,1014.47
2018-01-07T04:07:40.484Z,1014.53
2018-01-07T04:08:40.460Z,1014.48
2018-01-07T04:09:40.448Z,1014.52
2018-01-07T04:10:40.427Z,1014.47
2018-01-07T04:11:40.402Z,1014.51
2018-01-07T04:12:40.388Z,1014.55
2018-01-07T04:13:40.352Z,1014.46
2018-01-07T04:14:40.335Z,1014.53
2018-01-07T04:15:40.309Z,1014.51
2018-01-07T04:16:40.321Z,1014.51
2018-01-07T04:17:40.273Z,1014.53
2018-01-07T04:18:40.259Z,1014.57
2018-01-07T04:19:40.233Z,1014.52
2018-01-07T04:20:40.338Z,1014.59
2018-01-07T04:21:40.350Z,1014.60
2018-01-07T04:22:40.174Z,1014.61
2018-01-07T04:23:40.149Z,1014.65
2018-01-07T04:24:40.131Z,1014.68
2018-01-07T04:25:40.112Z,1014.65
2018-01-07T04:26:40.089Z,1014.71
2018-01-07T04:27:40.069Z,1014.65
2018-01-07T04:28:40.049Z,1014.71
2018-01-07T04:29:40.024Z,1014.68
2018-01-07T04:30:40.007Z,1014.70
2018-01-07T04:31:39.981Z,1014.66
2018-01-07T04:32:39.965Z,1014.72
2018-01-07T04:33:39.946Z,1014.72
2018-01-07T04:34:39.921Z,1014.74
2018-01-07T04:35:39.911Z,1014.75
2018-01-07T04:36:39.889Z,1014.72
2018-01-07T04:37:39.861Z,1014.77
2018-01-07T04:38:39.840Z,1014.76
2018-01-07T04:39:39.820Z,1014.78
2018-01-07T04:40:39.802Z,1014.85
2018-01-07T04:41:39.780Z,1014.79
2018-01-07T04:42:39.758Z,1014.78
2018-01-07T04:43:39.728Z,1014.81
2018-01-07T04:44:39.725Z,1014.83
2018-01-07T04:45:39.695Z,1014.81
2018-01-07T04:46:39.672Z,1014.86
2018-01-07T04:47:39.656Z,1014.89
2018-01-07T04:48:39.636Z,1014.86
2018-01-07T04:49:39.613Z,1014.92
2018-01-07T04:50:39.588Z,1014.95
2018-01-07T04:51:39.576Z,1014.96
2018-01-07T04:52:39.548Z,1014.95
2018-01-07T04:53:39.534Z,1014.99
2018-01-07T04:54:39.507Z,1015.03
2018-01-07T04:55:39.484Z,1015.10
2018-01-07T04:56:39.467Z,1015.07
2018-01-07T04:57:39.453Z,1015.06
2018-01-07T04:58:39.427Z,1015.09
2018-01-07T04:59:39.410Z,1015.13
2018-01-07T05:00:39.397Z,1015.16
2018-01-07T05:01:39.392Z,1015.20
2018-01-07T05:02:39.358Z,1015.18
2018-01-07T05:03:39.331Z,1015.23
2018-01-07T05:04:39.323Z,1015.22
2018-01-07T05:05:39.297Z,1015.27
2018-01-07T05:06:39.262Z,1015.26
2018-01-07T05:07:39.241Z,1015.26
2018-01-07T05:08:39.221Z,1015.24
2018-01-07T05:09:39.208Z,1015.31
2018-01-07T05:10:39.178Z,1015.27
2018-01-07T05:11:39.183Z,1015.30
2018-01-07T05:12:39.144Z,1015.30
2018-01-07T05:13:39.124Z,1015.33
2018-01-07T05:14:39.113Z,1015.29
2018-01-07T05:15:39.110Z,1015.37
2018-01-07T05:16:39.064Z,1015.32
2018-01-07T05:17:39.033Z,1015.36
2018-01-07T05:18:39.014Z,1015.35
2018-01-07T05:19:39.000Z,1015.37
2018-01-07T05:20:38.990Z,1015.42
2018-01-07T05:21:38.943Z,1015.41
2018-01-07T05:22:38.945Z,1015.37
2018-01-07T05:23:38.903Z,1015.36
2018-01-07T05:24:38.882Z,1015.42
2018-01-07T05:25:38.883Z,1015.44
2018-01-07T05:26:38.845Z,1015.43
2018-01-07T05:27:38.829Z,1015.50
2018-01-07T05:28:38.812Z,1015.50
2018-01-07T05:29:38.788Z,1015.42
2018-01-07T05:30:38.757Z,1015.47
2018-01-07T05:31:38.734Z,1015.55
2018-01-07T05:32:38.715Z,1015.57
2018-01-07T05:33:38.703Z,1015.50
2018-01-07T05:34:38.673Z,1015.51
2018-01-07T05:35:38.656Z,1015.60
2018-01-07T05:36:38.637Z,1015.61
2018-01-07T05:37:38.622Z,1015.57
2018-01-07T05:38:38.587Z,1015.60
2018-01-07T05:39:38.571Z,1015.57
2018-01-07T05:40:38.561Z,1015.69
2018-01-07T05:41:38.546Z,1015.74
2018-01-07T05:42:38.506Z,1015.72
2018-01-07T05:43:38.491Z,1015.70
2018-01-07T05:44:38.459Z,1015.78
2018-01-07T05:45:38.458Z,1015.81
2018-01-07T05:46:38.438Z,1015.79
2018-01-07T05:47:38.405Z,1015.81
2018-01-07T05:48:38.397Z,1015.77
2018-01-07T05:49:38.362Z,1015.84
2018-01-07T05:50:38.344Z,1015.80
2018-01-07T05:51:38.333Z,1015.81
2018-01-07T05:52:38.385Z,1015.84
2018-01-07T05:53:38.270Z,1015.85
2018-01-07T05:54:38.276Z,1015.87
2018-01-07T05:55:38.248Z,1015.92
2018-01-07T05:56:38.242Z,1015.92
2018-01-07T05:57:38.192Z,1016.02
2018-01-07T05:58:38.187Z,1016.00
2018-01-07T05:59:38.151Z,1016.08
2018-01-07T06:00:38.137Z,1016.11
2018-01-07T06:01:38.101Z,1016.08
2018-01-07T06:02:38.105Z,1016.11
2018-01-07T06:03:38.120Z,1016.16
2018-01-07T06:04:38.044Z,1016.17
2018-01-07T06:05:38.046Z,1016.12
2018-01-07T06:06:37.990Z,1016.20
2018-01-07T06:07:37.989Z,1016.13
2018-01-07T06:08:37.976Z,1016.19
2018-01-07T06:09:37.950Z,1016.19
2018-01-07T06:10:37.922Z,1016.22
2018-01-07T06:11:37.919Z,1016.25
2018-01-07T06:12:37.870Z,1016.29
2018-01-07T06:13:37.884Z,1016.30
2018-01-07T06:14:37.842Z,1016.26
2018-01-07T06:15:37.803Z,1016.22
2018-01-07T06:16:37.803Z,1016.31
2018-01-07T06:17:37.769Z,1016.33
2018-01-07T06:18:37.737Z,1016.35
2018-01-07T06:19:37.727Z,1016.36
2018-01-07T06:20:37.720Z,1016.41
2018-01-07T06:21:37.727Z,1016.45
2018-01-07T06:22:37.670Z,1016.44
2018-01-07T06:23:37.670Z,1016.50
2018-01-07T06:24:37.637Z,1016.48
2018-01-07T06:25:37.630Z,1016.53
2018-01-07T06:26:37.585Z,1016.54
2018-01-07T06:27:37.576Z,1016.51
2018-01-07T06:28:37.546Z,1016.55
2018-01-07T06:29:37.515Z,1016.64
2018-01-07T06:30:37.484Z,1016.64
2018-01-07T06:31:37.480Z,1016.68
2018-01-07T06:32:37.451Z,1016.68
2018-01-07T06:33:37.424Z,1016.76
2018-01-07T06:34:37.434Z,1016.76
2018-01-07T06:35:37.425Z,1016.71
2018-01-07T06:36:37.380Z,1016.76
2018-01-07T06:37:37.348Z,1016.78
2018-01-07T06:38:37.325Z,1016.81
2018-01-07T06:39:37.326Z,1016.80
2018-01-07T06:40:37.302Z,1016.86
2018-01-07T06:41:37.241Z,1016.86
2018-01-07T06:42:37.242Z,1016.88
2018-01-07T06:43:37.792Z,1016.83
2018-01-07T06:44:37.185Z,1016.90
2018-01-07T06:45:37.166Z,1016.93
2018-01-07T06:46:37.140Z,1016.92
2018-01-07T06:47:37.154Z,1016.95
2018-01-07T06:48:37.120Z,1016.93
2018-01-07T06:49:37.082Z,1016.95
2018-01-07T06:50:37.088Z,1016.96
2018-01-07T06:51:37.037Z,1016.94
2018-01-07T06:52:37.034Z,1016.99
2018-01-07T06:53:36.983Z,1016.98
2018-01-07T06:54:36.959Z,1016.97
2018-01-07T06:55:36.950Z,1016.96
2018-01-07T06:56:36.918Z,1016.97
2018-01-07T06:57:36.901Z,1016.93
2018-01-07T06:58:36.873Z,1016.96
2018-01-07T06:59:36.854Z,1016.88
2018-01-07T07:00:36.877Z,1016.93
2018-01-07T07:01:36.859Z,1016.90
2018-01-07T07:02:36.787Z,1016.94
2018-01-07T07:03:36.785Z,1016.98
2018-01-07T07:04:36.742Z,1017.02
2018-01-07T07:05:36.750Z,1017.03
2018-01-07T07:06:36.700Z,1017.05
2018-01-07T07:07:36.691Z,1017.06
2018-01-07T07:08:36.681Z,1017.05
2018-01-07T07:09:36.634Z,1017.05
2018-01-07T07:10:36.612Z,1017.13
2018-01-07T07:11:36.646Z,1017.19
2018-01-07T07:12:36.570Z,1017.18
2018-01-07T07:13:36.546Z,1017.13
2018-01-07T07:14:36.519Z,1017.16
2018-01-07T07:15:36.502Z,1017.18
2018-01-07T07:16:36.480Z,1017.16
2018-01-07T07:17:36.489Z,1017.22
2018-01-07T07:18:36.523Z,1017.30
2018-01-07T07:19:36.411Z,1017.32
2018-01-07T07:20:36.394Z,1017.32
2018-01-07T07:21:36.375Z,1017.39
2018-01-07T07:22:36.349Z,1017.42
2018-01-07T07:23:36.335Z,1017.48
2018-01-07T07:24:36.308Z,1017.51
2018-01-07T07:25:36.303Z,1017.54
2018-01-07T07:26:36.283Z,1017.53
2018-01-07T07:27:36.281Z,1017.55
2018-01-07T07:28:36.237Z,1017.59
2018-01-07T07:29:36.220Z,1017.60
2018-01-07T07:30:36.202Z,1017.58
2018-01-07T07:31:36.151Z,1017.65
2018-01-07T07:32:36.147Z,1017.63
2018-01-07T07:33:36.108Z,1017.66
2018-01-07T07:34:36.098Z,1017.67
2018-01-07T07:35:36.060Z,1017.73
2018-01-07T07:36:36.049Z,1017.74
2018-01-07T07:37:36.042Z,1017.79
2018-01-07T07:38:36.015Z,1017.80
2018-01-07T07:39:36.005Z,1017.77
2018-01-07T07:40:36.000Z,1017.82
2018-01-07T07:41:35.943Z,1017.84
2018-01-07T07:42:35.911Z,1017.92
2018-01-07T07:43:35.891Z,1017.96
2018-01-07T07:44:35.891Z,1017.99
2018-01-07T07:45:35.932Z,1018.07
2018-01-07T07:46:35.849Z,1018.04
2018-01-07T07:47:35.819Z,1018.14
2018-01-07T07:48:35.789Z,1018.20
2018-01-07T07:49:35.787Z,1018.14
2018-01-07T07:50:35.744Z,1018.23
2018-01-07T07:51:35.712Z,1018.23
2018-01-07T07:52:35.689Z,1018.30
2018-01-07T07:53:35.698Z,1018.33
2018-01-07T07:54:35.658Z,1018.39
2018-01-07T07:55:35.624Z,1018.44
2018-01-07T07:56:35.610Z,1018.44
2018-01-07T07:57:35.600Z,1018.40
2018-01-07T07:58:35.548Z,1018.43
2018-01-07T07:59:35.554Z,1018.47
2018-01-07T08:00:35.511Z,1018.54
2018-01-07T08:01:35.503Z,1018.52
2018-01-07T08:02:35.479Z,1018.57
2018-01-07T08:03:35.436Z,1018.61
2018-01-07T08:04:35.448Z,1018.62
2018-01-07T08:05:35.395Z,1018.63
2018-01-07T08:06:35.373Z,1018.63
2018-01-07T08:07:35.404Z,1018.64
2018-01-07T08:08:35.321Z,1018.69
2018-01-07T08:09:35.322Z,1018.73
2018-01-07T08:10:35.298Z,1018.75
2018-01-07T08:11:35.268Z,1018.74
2018-01-07T08:12:35.267Z,1018.85
2018-01-07T08:13:35.238Z,1018.82
2018-01-07T08:14:35.204Z,1018.85
2018-01-07T08:15:35.206Z,1018.89
2018-01-07T08:16:35.154Z,1018.92
2018-01-07T08:17:35.188Z,1018.97
2018-01-07T08:18:35.131Z,1019.00
2018-01-07T08:19:35.082Z,1018.97
2018-01-07T08:20:35.063Z,1019.03
2018-01-07T08:21:35.060Z,1019.04
2018-01-07T08:22:35.036Z,1019.04
2018-01-07T08:23:35.036Z,1019.00
2018-01-07T08:24:34.964Z,1019.04
2018-01-07T08:25:34.947Z,1018.97
2018-01-07T08:26:34.925Z,1018.97
2018-01-07T08:27:34.915Z,1018.95
2018-01-07T08:28:34.890Z,1019.00
2018-01-07T08:29:34.870Z,1018.96
2018-01-07T08:30:34.830Z,1018.93
2018-01-07T08:31:34.811Z,1019.03
2018-01-07T08:32:34.802Z,1018.94
2018-01-07T08:33:34.777Z,1018.97
2018-01-07T08:34:34.748Z,1019.04
2018-01-07T08:35:34.737Z,1019.06
2018-01-07T08:36:34.705Z,1019.03
2018-01-07T08:37:34.684Z,1019.09
2018-01-07T08:38:34.666Z,1019.09
2018-01-07T08:39:34.648Z,1019.13
2018-01-07T08:40:34.617Z,1019.19
2018-01-07T08:41:34.592Z,1019.22
2018-01-07T08:42:34.577Z,1019.21
2018-01-07T08:43:34.543Z,1019.25
2018-01-07T08:44:34.518Z,1019.20
2018-01-07T08:45:34.502Z,1019.20
2018-01-07T08:46:34.480Z,1019.18
2018-01-07T08:47:34.462Z,1019.19
2018-01-07T08:48:34.445Z,1019.10
2018-01-07T08:49:34.424Z,1019.13
2018-01-07T08:50:34.401Z,1019.10
2018-01-07T08:51:34.363Z,1019.07
2018-01-07T08:52:34.364Z,1019.08
2018-01-07T08:53:34.315Z,1019.06
2018-01-07T08:54:34.313Z,1019.05
2018-01-07T08:55:34.275Z,1019.09
2018-01-07T08:56:34.265Z,1019.13
2018-01-07T08:57:34.222Z,1019.15
2018-01-07T08:58:34.209Z,1019.13
2018-01-07T08:59:34.188Z,1019.17
2018-01-07T09:00:34.158Z,1019.11
2018-01-07T09:01:34.160Z,1019.12
2018-01-07T09:02:34.147Z,1019.08
2018-01-07T09:03:34.128Z,1019.13
2018-01-07T09:04:34.069Z,1019.18
2018-01-07T09:05:34.060Z,1019.16
2018-01-07T09:06:34.031Z,1019.14
2018-01-07T09:07:34.004Z,1019.19
2018-01-07T09:08:33.996Z,1019.14
2018-01-07T09:09:33.969Z,1019.13
2018-01-07T09:10:33.953Z,1019.18
2018-01-07T09:11:33.917Z,1019.11
2018-01-07T09:12:33.899Z,1019.18
2018-01-07T09:13:33.877Z,1019.21
2018-01-07T09:14:33.867Z,1019.24
2018-01-07T09:15:33.838Z,1019.18
2018-01-07T09:16:33.819Z,1019.25
2018-01-07T09:17:33.787Z,1019.27
2018-01-07T09:18:33.765Z,1019.28
2018-01-07T09:19:33.748Z,1019.31
2018-01-07T09:20:33.713Z,1019.33
2018-01-07T09:21:33.691Z,1019.32
2018-01-07T09:22:33.670Z,1019.35
2018-01-07T09:23:33.653Z,1019.35
2018-01-07T09:24:33.637Z,1019.38
2018-01-07T09:25:33.606Z,1019.41
2018-01-07T09:26:33.583Z,1019.39
2018-01-07T09:27:33.576Z,1019.42
2018-01-07T09:28:33.536Z,1019.44
2018-01-07T09:29:33.508Z,1019.48
2018-01-07T09:30:33.492Z,1019.48
2018-01-07T09:31:33.468Z,1019.51
2018-01-07T09:32:33.444Z,1019.57
2018-01-07T09:33:33.445Z,1019.65
2018-01-07T09:34:33.416Z,1019.64
2018-01-07T09:35:33.375Z,1019.67
2018-01-07T09:36:33.354Z,1019.67
2018-01-07T09:37:33.325Z,1019.68
2018-01-07T09:38:33.321Z,1019.68
2018-01-07T09:39:33.299Z,1019.69
2018-01-07T09:40:33.267Z,1019.73
2018-01-07T09:41:33.281Z,1019.76
2018-01-07T09:42:33.215Z,1019.79
2018-01-07T09:43:33.197Z,1019.72
2018-01-07T09:44:33.171Z,1019.80
2018-01-07T09:45:33.170Z,1019.88
2018-01-07T09:46:33.167Z,1019.89
2018-01-07T09:47:33.130Z,1019.90
2018-01-07T09:48:33.091Z,1019.91
2018-01-07T09:49:33.074Z,1019.90
2018-01-07T09:50:33.056Z,1019.91
2018-01-07T09:51:33.044Z,1019.90
2018-01-07T09:52:33.002Z,1019.96
2018-01-07T09:53:32.970Z,1019.94
2018-01-07T09:54:32.959Z,1019.91
2018-01-07T09:55:32.940Z,1019.99
2018-01-07T09:56:33.102Z,1020.00
2018-01-07T09:57:32.880Z,1019.97
2018-01-07T09:58:32.868Z,1019.97
2018-01-07T09:59:32.844Z,1019.97
2018-01-07T10:00:32.827Z,1020.04
2018-01-07T10:01:32.794Z,1020.06
2018-01-07T10:02:32.773Z,1020.10
2018-01-07T10:03:32.793Z,1019.99
2018-01-07T10:04:32.737Z,1020.08
2018-01-07T10:05:32.715Z,1020.07
2018-01-07T10:06:32.694Z,1020.03
2018-01-07T10:07:32.659Z,1020.12
2018-01-07T10:08:32.637Z,1020.07
2018-01-07T10:09:32.637Z,1020.09
2018-01-07T10:10:32.617Z,1020.09
2018-01-07T10:11:33.331Z,1020.08
2018-01-07T10:12:32.571Z,1020.11
2018-01-07T10:13:32.539Z,1020.13
2018-01-07T10:14:32.507Z,1020.16
2018-01-07T10:15:32.482Z,1020.13
2018-01-07T10:16:32.462Z,1020.11
2018-01-07T10:17:32.459Z,1020.14
2018-01-07T10:18:32.459Z,1020.14
2018-01-07T10:19:32.402Z,1020.08
2018-01-07T10:20:32.395Z,1020.12
2018-01-07T10:21:32.370Z,1020.07
2018-01-07T10:22:32.331Z,1020.04
2018-01-07T10:23:32.319Z,1020.08
2018-01-07T10:24:32.304Z,1020.14
2018-01-07T10:25:32.344Z,1020.09
2018-01-07T10:26:32.245Z,1020.10
2018-01-07T10:27:32.239Z,1020.09
2018-01-07T10:28:32.215Z,1020.12
2018-01-07T10:29:32.229Z,1020.10
2018-01-07T10:30:32.153Z,1020.07
2018-01-07T10:31:32.194Z,1020.02
2018-01-07T10:32:32.109Z,1020.08
2018-01-07T10:33:32.090Z,1020.07
2018-01-07T10:34:32.083Z,1020.15
2018-01-07T10:35:32.055Z,1020.12
2018-01-07T10:36:32.021Z,1020.12
2018-01-07T10:37:32.030Z,1020.18
2018-01-07T10:38:32.021Z,1020.20
2018-01-07T10:39:32.039Z,1020.18
2018-01-07T10:40:32.001Z,1020.21
2018-01-07T10:41:31.923Z,1020.26
2018-01-07T10:42:31.916Z,1020.24
2018-01-07T10:43:31.866Z,1020.23
2018-01-07T10:44:31.856Z,1020.28
2018-01-07T10:45:31.829Z,1020.25
2018-01-07T10:46:31.825Z,1020.27
2018-01-07T10:47:31.793Z,1020.24
2018-01-07T10:48:31.756Z,1020.28
2018-01-07T10:49:31.749Z,1020.31
2018-01-07T10:50:31.723Z,1020.30
2018-01-07T10:51:31.721Z,1020.31
2018-01-07T10:52:31.704Z,1020.33
2018-01-07T10:53:31.653Z,1020.36
2018-01-07T10:54:31.644Z,1020.33
2018-01-07T10:55:31.638Z,1020.37
2018-01-07T10:56:31.600Z,1020.44
2018-01-07T10:57:31.590Z,1020.35
2018-01-07T10:58:31.541Z,1020.43
2018-01-07T10:59:31.593Z,1020.45
2018-01-07T11:00:31.576Z,1020.46
2018-01-07T11:01:31.513Z,1020.47
2018-01-07T11:02:31.547Z,1020.53
2018-01-07T11:03:31.470Z,1020.46
2018-01-07T11:04:31.420Z,1020.46
2018-01-07T11:05:31.560Z,1020.53
2018-01-07T11:06:31.382Z,1020.53
2018-01-07T11:07:31.391Z,1020.48
2018-01-07T11:08:31.417Z,1020.46
2018-01-07T11:09:31.378Z,1020.53
2018-01-07T11:10:31.318Z,1020.51
2018-01-07T11:11:31.263Z,1020.49
2018-01-07T11:12:31.310Z,1020.49
2018-01-07T11:13:31.234Z,1020.49
2018-01-07T11:14:31.229Z,1020.41
2018-01-07T11:15:31.252Z,1020.40
2018-01-07T11:16:31.162Z,1020.44
2018-01-07T11:17:31.129Z,1020.37
2018-01-07T11:18:31.123Z,1020.35
2018-01-07T11:19:31.111Z,1020.35
2018-01-07T11:20:31.064Z,1020.33
2018-01-07T11:21:31.101Z,1020.37
2018-01-07T11:22:31.063Z,1020.37
2018-01-07T11:23:31.028Z,1020.34
2018-01-07T11:24:30.992Z,1020.32
2018-01-07T11:25:30.981Z,1020.33
2018-01-07T11:26:30.955Z,1020.37
2018-01-07T11:27:31.045Z,1020.40
2018-01-07T11:28:30.917Z,1020.34
2018-01-07T11:29:30.887Z,1020.29
2018-01-07T11:30:30.852Z,1020.35
2018-01-07T11:31:30.835Z,1020.32
2018-01-07T11:32:30.949Z,1020.32
2018-01-07T11:33:30.782Z,1020.31
2018-01-07T11:34:30.780Z,1020.33
2018-01-07T11:35:30.810Z,1020.34
2018-01-07T11:36:30.726Z,1020.34
2018-01-07T11:37:30.717Z,1020.34
2018-01-07T11:38:30.690Z,1020.34
2018-01-07T11:39:30.669Z,1020.30
2018-01-07T11:40:30.710Z,1020.34
2018-01-07T11:41:30.656Z,1020.31
2018-01-07T11:42:30.615Z,1020.17
2018-01-07T11:43:30.654Z,1020.23
2018-01-07T11:44:30.576Z,1020.29
2018-01-07T11:45:30.556Z,1020.31
2018-01-07T11:46:30.516Z,1020.25
2018-01-07T11:47:30.584Z,1020.26
2018-01-07T11:48:30.482Z,1020.25
2018-01-07T11:49:30.459Z,1020.27
2018-01-07T11:50:30.424Z,1020.21
2018-01-07T11:51:30.447Z,1020.24
2018-01-07T11:52:30.447Z,1020.17
2018-01-07T11:53:30.402Z,1020.12
2018-01-07T11:54:30.351Z,1020.17
2018-01-07T11:55:30.311Z,1020.19
2018-01-07T11:56:30.318Z,1020.12
2018-01-07T11:57:30.343Z,1020.12
2018-01-07T11:58:30.260Z,1020.09
2018-01-07T11:59:30.236Z,1020.17
2018-01-07T12:00:30.218Z,1020.11
2018-01-07T12:01:30.205Z,1020.11
2018-01-07T12:02:30.200Z,1020.10
2018-01-07T12:03:30.149Z,1020.06
2018-01-07T12:04:30.141Z,1020.13
2018-01-07T12:05:30.111Z,1020.11
2018-01-07T12:06:30.061Z,1020.00